Time;durP1;ratioP1;P1;durP2;ratioP2;P2;SDS_P1;SDS_P2;PMS_P1;PMS_P2;Temp;Humidity;BMP_temperature;BMP_pressure;BME280_temperature;BME280_humidity;BME280_pressure;Samples;Min_cycle;Max_cycle;Signal;HPM_P1;HPM_P2
2022/09/22 00:00:34;;;;;;;3.37;2.47;;;;;;;-145.69;100.00;72616.41;5092789;28;20209;-78
2022/09/22 00:03:00;;;;;;;4.27;2.23;;;;;;;-145.69;100.00;72628.34;5083487;28;20195;-77
2022/09/22 00:05:28;;;;;;;5.33;2.50;;;;;;;-145.69;100.00;72628.34;5072772;28;20206;-78
2022/09/22 00:07:55;;;;;;;4.20;2.50;;;;;;;-145.69;100.00;72622.38;5072869;28;20209;-78
2022/09/22 00:10:22;;;;;;;4.27;2.50;;;;;;;-145.69;100.00;72626.34;5072342;28;20205;-79
2022/09/22 00:12:49;;;;;;;5.90;2.60;;;;;;;-145.69;100.00;72618.38;5072552;28;20213;-78
2022/09/22 00:15:16;;;;;;;4.32;2.65;;;;;;;-145.69;100.00;72616.41;5072351;28;20442;-78
2022/09/22 00:17:42;;;;;;;4.90;2.50;;;;;;;-145.69;100.00;72606.44;5072450;28;20289;-76
2022/09/22 00:20:11;;;;;;;5.13;2.40;;;;;;;-145.69;100.00;72616.41;5072836;28;20210;-79
2022/09/22 00:22:39;;;;;;;7.73;2.60;;;;;;;-145.69;100.00;72620.38;5072240;28;20543;-80
2022/09/22 00:25:07;;;;;;;3.07;2.30;;;;;;;-145.69;100.00;72618.38;5072475;28;20555;-78
2022/09/22 00:27:33;;;;;;;4.37;2.60;;;;;;;-145.69;100.00;72626.34;5072782;28;20221;-79
2022/09/22 00:30:00;;;;;;;5.27;2.60;;;;;;;-145.69;100.00;72640.28;5072626;28;20561;-78
2022/09/22 00:32:27;;;;;;;7.03;2.93;;;;;;;-145.69;100.00;72634.31;5072677;28;20256;-78
2022/09/22 00:34:53;;;;;;;4.17;2.57;;;;;;;-145.69;100.00;72634.31;5072372;28;20638;-78
2022/09/22 00:37:20;;;;;;;5.17;2.63;;;;;;;-145.69;100.00;72614.41;5072394;28;20206;-78
2022/09/22 00:39:47;;;;;;;5.70;2.60;;;;;;;-145.69;100.00;72612.41;5072326;28;20198;-79
2022/09/22 00:42:14;;;;;;;4.30;2.73;;;;;;;-145.69;100.00;72604.44;5072400;28;20203;-80
2022/09/22 00:44:43;;;;;;;5.03;2.87;;;;;;;-145.69;100.00;72604.44;5072189;28;20585;-79
2022/09/22 00:47:20;;;;;;;7.60;3.13;;;;;;;-145.69;100.00;72600.47;5092266;28;20672;-79
2022/09/22 00:49:53;;;;;;;4.07;2.97;;;;;;;-145.69;100.00;72584.56;5092386;28;20226;-79
2022/09/22 00:52:24;;;;;;;7.23;3.10;;;;;;;-145.69;100.00;72584.56;5092526;28;20201;-79
2022/09/22 00:54:55;;;;;;;4.53;2.63;;;;;;;-145.69;100.00;72588.53;5092616;28;20202;-79
2022/09/22 00:57:25;;;;;;;4.77;2.73;;;;;;;-145.69;100.00;72586.53;5092440;28;20203;-78
2022/09/22 00:59:53;;;;;;;5.23;2.90;;;;;;;-145.69;100.00;72576.59;5092263;28;20193;-77
2022/09/22 01:02:21;;;;;;;8.53;3.13;;;;;;;-145.69;100.00;72572.59;5095636;28;20664;-78
2022/09/22 01:04:50;;;;;;;5.60;2.50;;;;;;;-145.69;100.00;72576.59;5095586;28;20241;-77
2022/09/22 01:07:17;;;;;;;6.00;2.67;;;;;;;-145.69;100.00;72576.59;5095957;28;20237;-76
2022/09/22 01:09:44;;;;;;;5.87;3.07;;;;;;;-145.69;100.00;72560.66;5095938;28;20198;-76
2022/09/22 01:12:12;;;;;;;5.07;2.70;;;;;;;-145.69;100.00;72564.66;5077346;28;20614;-77
2022/09/22 01:14:56;;;;;;;5.43;2.83;;;;;;;-145.69;100.00;72576.59;5055743;28;20199;-77
2022/09/22 01:17:34;;;;;;;5.57;2.70;;;;;;;-145.69;100.00;72580.56;5068016;28;20956;-77
2022/09/22 01:20:40;;;;;;;7.13;2.60;;;;;;;-145.69;100.00;72564.66;5075471;28;20202;-77
2022/09/22 01:23:27;;;;;;;5.37;2.80;;;;;;;-145.69;100.00;72552.69;5075535;28;20237;-77
2022/09/22 01:26:19;;;;;;;3.77;2.27;;;;;;;-145.69;100.00;72562.66;5075907;28;20210;-77
2022/09/22 01:29:11;;;;;;;5.97;2.37;;;;;;;-145.69;100.00;72560.66;5075572;28;20198;-78
2022/09/22 01:31:45;;;;;;;4.80;2.20;;;;;;;-145.69;100.00;72564.66;5075343;28;20298;-78
2022/09/22 01:34:19;;;;;;;4.07;2.67;;;;;;;-145.69;100.00;72564.66;5075329;28;20209;-78
2022/09/22 01:36:51;;;;;;;4.77;2.30;;;;;;;-145.69;100.00;72570.63;5075673;28;20202;-79
2022/09/22 01:39:22;;;;;;;4.63;2.33;;;;;;;-145.69;100.00;72550.72;5075132;28;20214;-77
2022/09/22 01:41:57;;;;;;;4.03;2.40;;;;;;;-145.69;100.00;72536.78;5076468;28;20195;-78
2022/09/22 01:44:31;;;;;;;2.87;1.97;;;;;;;-145.69;100.00;72550.72;5075089;28;20234;-78
2022/09/22 01:47:02;;;;;;;6.50;2.40;;;;;;;-145.69;100.00;72562.66;5075015;28;20203;-77
2022/09/22 01:49:33;;;;;;;6.03;2.43;;;;;;;-145.69;100.00;72574.59;5074810;28;20623;-78
2022/09/22 01:52:04;;;;;;;6.07;2.07;;;;;;;-145.69;100.00;72570.63;5075178;28;20214;-77
2022/09/22 01:54:36;;;;;;;3.80;2.03;;;;;;;-145.69;100.00;72582.56;5074559;28;20199;-77
2022/09/22 01:57:12;;;;;;;6.30;2.10;;;;;;;-145.69;100.00;72604.44;5075100;28;20340;-78
2022/09/22 01:59:42;;;;;;;4.33;2.53;;;;;;;-145.69;100.00;72586.53;5074929;28;20207;-78
2022/09/22 02:02:15;;;;;;;4.10;2.40;;;;;;;-145.69;100.00;72600.47;5075125;28;20238;-77
2022/09/22 02:04:46;;;;;;;2.80;2.17;;;;;;;-145.69;100.00;72612.41;5074824;28;20228;-77
2022/09/22 02:07:19;;;;;;;3.70;2.47;;;;;;;-145.69;100.00;72608.44;5074794;28;20233;-78
2022/09/22 02:09:50;;;;;;;4.60;2.10;;;;;;;-145.69;100.00;72624.34;5074848;28;20210;-78
2022/09/22 02:12:18;;;;;;;5.47;1.90;;;;;;;-145.69;100.00;72624.34;5094208;28;20202;-78
2022/09/22 02:14:45;;;;;;;4.50;2.40;;;;;;;-145.69;100.00;72626.34;5095073;28;20569;-77
2022/09/22 02:17:14;;;;;;;2.33;1.70;;;;;;;-145.69;100.00;72634.31;5094318;28;20202;-77
2022/09/22 02:19:42;;;;;;;4.70;2.53;;;;;;;-145.69;100.00;72606.44;5094472;28;20202;-80
2022/09/22 02:22:10;;;;;;;8.27;2.20;;;;;;;-145.69;100.00;72616.41;5094349;28;20200;-77
2022/09/22 02:24:39;;;;;;;4.50;2.30;;;;;;;-145.69;100.00;72636.31;5094457;28;20226;-78
2022/09/22 02:27:08;;;;;;;2.73;1.87;;;;;;;-145.69;100.00;72632.31;5094566;28;20198;-78
2022/09/22 02:29:38;;;;;;;6.00;2.17;;;;;;;-145.69;100.00;72616.41;5094607;28;20198;-79
2022/09/22 02:32:09;;;;;;;3.73;2.30;;;;;;;-145.69;100.00;72638.28;5094193;28;20210;-78
2022/09/22 02:34:37;;;;;;;3.30;2.20;;;;;;;-145.69;100.00;72624.34;5094513;28;20194;-78
2022/09/22 02:37:11;;;;;;;2.53;2.03;;;;;;;-145.69;100.00;72638.28;5094678;28;20198;-77
2022/09/22 02:39:41;;;;;;;5.17;2.27;;;;;;;-145.69;100.00;72636.31;5084984;28;20202;-78
2022/09/22 02:42:22;;;;;;;3.30;2.27;;;;;;;-145.69;100.00;72672.13;5092497;28;20205;-80
2022/09/22 02:44:54;;;;;;;4.63;2.47;;;;;;;-145.69;100.00;72692.03;5093870;28;20230;-80
2022/09/22 02:47:27;;;;;;;3.50;2.40;;;;;;;-145.69;100.00;72719.91;5087211;28;20212;-78
2022/09/22 02:49:56;;;;;;;4.30;2.20;;;;;;;-145.69;100.00;72755.72;5052285;28;20353;-80
2022/09/22 02:52:24;;;;;;;3.23;2.20;;;;;;;-145.69;100.00;72775.63;5053850;28;20657;-79
2022/09/22 02:54:52;;;;;;;5.83;2.43;;;;;;;-145.69;100.00;72809.47;5053867;28;20210;-79
2022/09/22 02:57:19;;;;;;;5.20;2.80;;;;;;;-145.69;100.00;72825.41;5052190;28;20467;-78
2022/09/22 02:59:45;;;;;;;8.37;2.90;;;;;;;-145.69;100.00;72847.28;5058480;28;20202;-79
2022/09/22 03:02:12;;;;;;;3.13;2.53;;;;;;;-145.69;100.00;72853.28;5073895;28;20199;-78
2022/09/22 03:04:39;;;;;;;2.90;2.37;;;;;;;-145.69;100.00;72883.13;5073690;28;20222;-78
2022/09/22 03:07:06;;;;;;;4.47;2.70;;;;;;;-145.69;100.00;72891.09;5073638;28;20203;-78
2022/09/22 03:09:33;;;;;;;4.33;3.10;;;;;;;-145.69;100.00;72909.00;5073462;28;20195;-78
2022/09/22 03:11:59;;;;;;;5.07;2.47;;;;;;;-145.69;100.00;72926.91;5090131;28;20655;-78
2022/09/22 03:14:26;;;;;;;4.87;3.17;;;;;;;-145.69;100.00;72934.88;5093644;28;20206;-78
2022/09/22 03:16:52;;;;;;;5.27;3.53;;;;;;;-145.69;100.00;72952.78;5093910;28;20194;-79
2022/09/22 03:19:19;;;;;;;6.10;2.80;;;;;;;-145.69;100.00;72966.72;5070040;28;20199;-78
2022/09/22 03:21:45;;;;;;;6.40;3.57;;;;;;;-145.69;100.00;72986.63;5053337;28;20209;-78
2022/09/22 03:24:13;;;;;;;5.20;3.30;;;;;;;-145.69;100.00;73012.53;5090184;28;20225;-78
2022/09/22 03:26:39;;;;;;;8.07;3.37;;;;;;;-145.69;100.00;73022.47;5093771;28;20202;-78
2022/09/22 03:29:06;;;;;;;3.93;2.97;;;;;;;-145.69;100.00;73028.44;5093129;28;20193;-78
2022/09/22 03:31:32;;;;;;;6.20;3.40;;;;;;;-145.69;100.00;73042.38;5093361;28;20538;-78
2022/09/22 03:33:59;;;;;;;4.97;2.83;;;;;;;-145.69;100.00;73054.31;5093467;28;20198;-78
2022/09/22 03:36:25;;;;;;;5.57;3.00;;;;;;;-145.69;100.00;73074.22;5093135;28;20198;-78
2022/09/22 03:38:52;;;;;;;4.93;3.17;;;;;;;-145.69;100.00;73088.16;5092903;28;20205;-78
2022/09/22 03:41:20;;;;;;;3.70;2.63;;;;;;;-145.69;100.00;73096.13;5093494;28;20205;-79
2022/09/22 03:43:46;;;;;;;6.40;3.47;;;;;;;-145.69;100.00;73070.25;5093185;28;20198;-79
2022/09/22 03:46:13;;;;;;;7.30;3.27;;;;;;;-145.69;100.00;73084.19;5092635;28;20222;-80
2022/09/22 03:48:40;;;;;;;5.37;3.37;;;;;;;-145.69;100.00;73090.16;5093251;28;20240;-80
2022/09/22 03:51:07;;;;;;;6.90;4.00;;;;;;;-145.69;100.00;73092.16;5093119;28;20447;-79
2022/09/22 03:53:33;;;;;;;6.40;3.97;;;;;;;-145.69;100.00;73098.13;5080183;28;20320;-78
2022/09/22 03:56:07;;;;;;;15.90;4.57;;;;;;;-145.69;100.00;73110.06;5073067;28;20229;-78
2022/09/22 03:58:35;;;;;;;8.67;4.47;;;;;;;-145.69;100.00;73122.00;5072967;28;20202;-79
2022/09/22 04:01:02;;;;;;;7.97;4.63;;;;;;;-145.69;100.00;73112.06;5072925;28;20195;-78
2022/09/22 04:03:29;;;;;;;9.60;5.00;;;;;;;-145.69;100.00;73114.03;5072699;28;20206;-78
2022/09/22 04:05:55;;;;;;;10.07;5.63;;;;;;;-145.69;100.00;73114.03;5072878;28;20222;-78
2022/09/22 04:08:22;;;;;;;10.30;4.97;;;;;;;-145.69;100.00;73118.03;5073027;28;20199;-79
2022/09/22 04:10:48;;;;;;;9.77;5.17;;;;;;;-145.69;100.00;73094.13;5072952;28;20621;-78
2022/09/22 04:13:15;;;;;;;9.17;5.33;;;;;;;-145.69;100.00;73110.06;5072559;28;20206;-78
2022/09/22 04:15:45;;;;;;;8.80;4.97;;;;;;;-145.69;100.00;73110.06;5072811;28;20202;-79
2022/09/22 04:18:13;;;;;;;9.80;5.40;;;;;;;-145.69;100.00;73102.09;5072640;28;20577;-79
2022/09/22 04:20:41;;;;;;;8.70;5.13;;;;;;;-145.69;100.00;73086.19;5072688;28;20335;-80
2022/09/22 04:23:08;;;;;;;16.70;5.97;;;;;;;-145.69;100.00;73054.31;5084284;28;20310;-79
2022/09/22 04:25:34;;;;;;;10.47;5.43;;;;;;;-145.69;100.00;73068.25;5092658;28;20315;-81
2022/09/22 04:28:01;;;;;;;10.93;4.53;;;;;;;-145.69;100.00;73090.16;5092500;28;20202;-79
2022/09/22 04:30:28;;;;;;;10.93;4.47;;;;;;;-145.69;100.00;73094.13;5092896;28;20205;-79
2022/09/22 04:32:57;;;;;;;11.50;4.83;;;;;;;-145.69;100.00;73106.09;5092679;28;20604;-79
2022/09/22 04:35:23;;;;;;;10.10;4.53;;;;;;;-145.69;100.00;73090.16;5094461;28;20756;-78
2022/09/22 04:37:51;;;;;;;8.60;4.10;;;;;;;-145.69;100.00;73098.13;5096880;28;20696;-78
2022/09/22 04:40:17;;;;;;;8.30;4.23;;;;;;;-145.69;100.00;73064.28;5096756;28;20198;-79
2022/09/22 04:42:45;;;;;;;7.23;4.20;;;;;;;-145.69;100.00;73082.19;5096639;28;20722;-78
2022/09/22 04:45:13;;;;;;;9.20;3.93;;;;;;;-145.69;100.00;73082.19;5096455;28;20224;-79
2022/09/22 04:47:40;;;;;;;7.18;4.45;;;;;;;-145.69;100.00;73070.25;5095823;28;20458;-78
2022/09/22 04:50:09;;;;;;;4.67;3.50;;;;;;;-145.69;100.00;73062.28;5096266;28;20241;-79
2022/09/22 04:52:36;;;;;;;6.83;4.03;;;;;;;-145.69;100.00;73010.53;5088918;28;20202;-81
2022/09/22 04:55:03;;;;;;;8.93;4.23;;;;;;;-145.69;100.00;72978.69;5076134;28;20681;-77
2022/09/22 04:57:29;;;;;;;13.33;4.30;;;;;;;-145.69;100.00;72964.75;5076030;28;20676;-79
2022/09/22 04:59:56;;;;;;;5.63;3.67;;;;;;;-145.69;100.00;72911.00;5075961;28;20226;-80
2022/09/22 05:02:22;;;;;;;12.10;4.07;;;;;;;-145.69;100.00;72911.00;5075909;28;20222;-80
2022/09/22 05:04:49;;;;;;;4.77;2.93;;;;;;;-145.69;100.00;72911.00;5075748;28;20229;-83
2022/09/22 05:07:17;;;;;;;7.13;4.00;;;;;;;-145.69;100.00;72859.25;5076075;28;20202;-79
2022/09/22 05:09:43;;;;;;;4.97;3.10;;;;;;;-145.69;100.00;72857.25;5075657;28;20210;-78
2022/09/22 05:12:09;;;;;;;4.77;2.73;;;;;;;-145.69;100.00;72873.19;5075559;28;20650;-78
2022/09/22 05:14:36;;;;;;;4.73;2.83;;;;;;;-145.69;100.00;72841.31;5075604;28;20198;-79
2022/09/22 05:17:03;;;;;;;4.23;2.37;;;;;;;-145.69;100.00;72839.34;5075918;28;20209;-78
2022/09/22 05:19:29;;;;;;;5.27;2.90;;;;;;;-145.69;100.00;72809.47;5075724;28;20222;-79
2022/09/22 05:21:56;;;;;;;4.60;2.00;;;;;;;-145.69;100.00;72779.63;5079843;28;20193;-79
2022/09/22 05:24:24;;;;;;;3.23;2.13;;;;;;;-145.69;100.00;72783.59;5095856;28;20525;-79
2022/09/22 05:26:50;;;;;;;5.20;2.53;;;;;;;-145.69;100.00;72775.63;5095579;28;20325;-78
2022/09/22 05:29:17;;;;;;;3.17;2.23;;;;;;;-145.69;100.00;72779.63;5082030;28;20553;-80
2022/09/22 05:31:44;;;;;;;4.47;2.43;;;;;;;-145.69;100.00;72763.69;5059014;28;20187;-79
2022/09/22 05:34:10;;;;;;;4.87;2.60;;;;;;;-145.69;100.00;72735.81;5075716;28;20198;-79
2022/09/22 05:36:37;;;;;;;5.10;2.30;;;;;;;-145.69;100.00;72713.94;5075383;28;20198;-78
2022/09/22 05:39:04;;;;;;;3.87;2.03;;;;;;;-145.69;100.00;72709.94;5075386;28;20669;-78
2022/09/22 05:41:32;;;;;;;5.87;2.30;;;;;;;-145.69;100.00;72696.00;5075133;28;20206;-77
2022/09/22 05:43:58;;;;;;;2.80;2.10;;;;;;;-145.69;100.00;72700.00;5075136;28;20234;-78
2022/09/22 05:46:25;;;;;;;3.53;2.10;;;;;;;-145.69;100.00;72698.00;5074535;28;20227;-79
2022/09/22 05:48:51;;;;;;;2.27;1.80;;;;;;;-145.69;100.00;72682.09;5075117;28;20240;-78
2022/09/22 05:51:18;;;;;;;2.43;1.77;;;;;;;-145.69;100.00;72670.13;5075229;28;20202;-79
2022/09/22 05:53:44;;;;;;;3.07;2.10;;;;;;;-145.69;100.00;72662.19;5075569;28;20202;-79
2022/09/22 05:56:11;;;;;;;4.70;2.03;;;;;;;-145.69;100.00;72648.25;5075015;28;20199;-79
2022/09/22 05:58:39;;;;;;;5.33;1.90;;;;;;;-145.69;100.00;72624.34;5074899;28;20692;-80
2022/09/22 06:01:06;;;;;;;5.70;1.80;;;;;;;-145.69;100.00;72602.47;5074932;28;20657;-79
2022/09/22 06:03:32;;;;;;;2.50;1.70;;;;;;;-145.69;100.00;72606.44;5075010;28;20210;-79
2022/09/22 06:05:58;;;;;;;2.63;1.80;;;;;;;-145.69;100.00;72600.47;5074816;28;20222;-80
2022/09/22 06:08:25;;;;;;;3.13;1.80;;;;;;;-145.69;100.00;72604.44;5074552;28;20202;-80
2022/09/22 06:10:52;;;;;;;4.40;1.70;;;;;;;-145.69;100.00;72572.59;5074615;28;20211;-78
2022/09/22 06:13:18;;;;;;;3.13;1.50;;;;;;;-145.69;100.00;72572.59;5074947;28;20226;-80
2022/09/22 06:15:47;;;;;;;3.97;1.77;;;;;;;-145.69;100.00;72572.59;5074591;28;20199;-81
2022/09/22 06:18:16;;;;;;;2.83;1.67;;;;;;;-145.69;100.00;72572.59;5074188;28;20609;-79
2022/09/22 06:20:44;;;;;;;3.97;1.93;;;;;;;-145.69;100.00;72564.66;5079421;28;20199;-79
2022/09/22 06:23:11;;;;;;;2.60;1.63;;;;;;;-145.69;100.00;72538.78;5065227;28;20277;-80
2022/09/22 06:25:38;;;;;;;4.73;1.93;;;;;;;-145.69;100.00;72520.84;5076524;28;20230;-80
2022/09/22 06:28:06;;;;;;;3.60;1.60;;;;;;;-145.69;100.00;72520.84;5074474;28;20210;-79
2022/09/22 06:30:33;;;;;;;3.03;1.73;;;;;;;-145.69;100.00;72510.91;5074574;28;20201;-79
2022/09/22 06:33:01;;;;;;;4.70;1.70;;;;;;;-145.69;100.00;72473.09;5073515;28;20203;-81
2022/09/22 06:35:36;;;;;;;3.10;1.67;;;;;;;-145.69;100.00;72469.09;5074118;28;20198;-80
2022/09/22 06:38:05;;;;;;;3.07;1.60;;;;;;;-145.69;100.00;72469.09;5074148;28;20194;-79
2022/09/22 06:40:32;;;;;;;2.60;1.80;;;;;;;-145.69;100.00;72467.13;5074123;28;20249;-80
2022/09/22 06:43:00;;;;;;;4.40;1.60;;;;;;;-145.69;100.00;72445.22;5073789;28;20203;-79
2022/09/22 06:45:28;;;;;;;2.53;1.50;;;;;;;-145.69;100.00;72439.25;5074179;28;20218;-80
2022/09/22 06:47:57;;;;;;;2.67;1.73;;;;;;;-145.69;100.00;72425.31;5074489;28;20203;-78
2022/09/22 06:50:31;;;;;;;2.47;1.67;;;;;;;-145.69;100.00;72423.31;5072663;28;20450;-81
2022/09/22 06:52:59;;;;;;;3.13;1.60;;;;;;;-145.69;100.00;72409.38;5074017;28;20198;-81
2022/09/22 06:55:26;;;;;;;3.57;1.83;;;;;;;-145.69;100.00;72399.44;5073798;28;20233;-80
2022/09/22 06:57:53;;;;;;;5.90;1.70;;;;;;;-145.69;100.00;72377.53;5073269;28;20597;-80
2022/09/22 07:00:19;;;;;;;2.10;1.43;;;;;;;-145.69;100.00;72371.56;5073519;28;20210;-80
2022/09/22 07:02:46;;;;;;;4.97;1.90;;;;;;;-145.69;100.00;72351.66;5073100;28;20685;-79
2022/09/22 07:05:19;;;;;;;2.10;1.60;;;;;;;-145.69;99.90;72329.78;5073600;28;20199;-80
2022/09/22 07:07:49;;;;;;;4.07;1.60;;;;;;;-145.69;100.00;72327.78;5073758;28;20203;-80
2022/09/22 07:10:16;;;;;;;4.77;1.60;;;;;;;-145.69;98.04;72309.88;5073407;28;20617;-81
2022/09/22 07:12:42;;;;;;;1.73;1.33;;;;;;;-145.69;97.96;72301.91;5073742;28;20207;-78
2022/09/22 07:15:09;;;;;;;3.23;1.60;;;;;;;-145.69;96.72;72297.94;5075124;28;20207;-79
2022/09/22 07:17:36;;;;;;;2.23;1.27;;;;;;;-145.69;96.28;72282.00;5093041;28;20640;-78
2022/09/22 07:20:04;;;;;;;2.30;1.20;;;;;;;-145.69;97.14;72270.06;5093363;28;20194;-79
2022/09/22 07:22:30;;;;;;;1.83;1.50;;;;;;;-145.69;96.55;72254.16;5093861;28;20201;-79
2022/09/22 07:25:01;;;;;;;3.67;1.40;;;;;;;-145.69;94.30;72242.22;5093621;28;20552;-79
2022/09/22 07:27:27;;;;;;;1.60;1.10;;;;;;;-145.69;96.81;72228.28;5093682;28;20658;-81
2022/09/22 07:29:55;;;;;;;2.27;1.60;;;;;;;-145.69;96.35;72214.34;5093328;28;20198;-82
2022/09/22 07:32:22;;;;;;;2.70;1.40;;;;;;;-145.69;93.79;72194.44;5093502;28;20255;-80
2022/09/22 07:34:49;;;;;;;1.97;1.20;;;;;;;-145.69;91.20;72186.47;5060673;28;20200;-79
2022/09/22 07:37:15;;;;;;;1.47;1.07;;;;;;;-145.69;87.31;72182.50;5053390;28;20203;-80
2022/09/22 07:39:44;;;;;;;2.27;1.10;;;;;;;-145.69;84.73;72170.56;5053455;28;20203;-79
2022/09/22 07:42:12;;;;;;;3.10;1.33;;;;;;;-145.69;83.79;72168.56;5053168;28;20636;-80
2022/09/22 07:48:35;;;;;;;1.17;0.90;;;;;;;-145.69;85.13;72138.72;5053878;28;20245;-81
2022/09/22 07:50:16;;;;;;;2.73;1.33;;;;;;;-145.69;85.09;72130.75;5052867;28;20318;-80
2022/09/22 07:52:42;;;;;;;3.07;0.90;;;;;;;-145.69;82.67;72116.81;5053131;28;20210;-78
2022/09/22 07:55:09;;;;;;;2.13;0.97;;;;;;;-145.69;83.25;72102.88;5052908;28;20207;-80
2022/09/22 07:57:37;;;;;;;1.63;1.00;;;;;;;-145.69;81.42;72086.97;5053146;28;20204;-85
2022/09/22 08:00:04;;;;;;;3.03;1.00;;;;;;;-145.69;81.25;72079.00;5053018;28;20218;-81
2022/09/22 08:02:31;;;;;;;1.00;0.90;;;;;;;-145.69;80.27;72079.00;5053115;28;20637;-80
2022/09/22 08:05:01;;;;;;;0.80;0.80;;;;;;;-145.69;83.41;72063.09;5081144;28;20194;-82
2022/09/22 08:07:36;;;;;;;1.93;0.97;;;;;;;-145.69;79.39;72057.13;5078340;28;20226;-81
2022/09/22 08:10:02;;;;;;;1.13;0.70;;;;;;;-145.69;77.18;72059.09;5072625;28;20245;-80
2022/09/22 08:12:29;;;;;;;1.37;1.00;;;;;;;-145.69;77.17;72055.13;5070752;28;20203;-80
2022/09/22 08:14:57;;;;;;;1.00;0.90;;;;;;;-145.69;81.06;72039.19;5072836;28;20228;-82
2022/09/22 08:17:23;;;;;;;1.57;0.77;;;;;;;-145.69;76.77;72017.31;5072570;28;20203;-82
2022/09/22 08:19:50;;;;;;;2.00;0.87;;;;;;;-145.69;77.03;72015.31;5071509;28;20194;-78
2022/09/22 08:22:17;;;;;;;2.37;0.80;;;;;;;-145.69;76.66;71993.44;5072622;28;20241;-76
2022/09/22 08:24:44;;;;;;;1.80;1.03;;;;;;;-145.69;75.52;72005.38;5072426;28;20194;-77
2022/09/22 08:27:13;;;;;;;1.53;0.77;;;;;;;-145.69;75.65;71987.47;5072377;28;20580;-80
2022/09/22 08:29:42;;;;;;;1.00;0.90;;;;;;;-145.69;72.77;71975.50;5072555;28;20684;-79
2022/09/22 08:32:10;;;;;;;0.77;0.73;;;;;;;-145.69;74.37;71975.50;5072626;28;20301;-77
2022/09/22 08:34:36;;;;;;;1.30;0.80;;;;;;;-145.69;73.15;71963.56;5072514;28;20198;-80
2022/09/22 08:37:03;;;;;;;0.80;0.80;;;;;;;-145.69;74.21;71947.66;5081967;28;20656;-79
2022/09/22 08:39:30;;;;;;;1.00;1.00;;;;;;;-145.69;79.27;71941.69;5092712;28;20200;-79
2022/09/22 08:42:10;;;;;;;0.67;0.60;;;;;;;-145.69;70.55;71949.66;5092767;28;20220;-79
2022/09/22 08:44:41;;;;;;;1.23;0.60;;;;;;;-145.69;68.37;71941.69;5092624;28;20255;-80
2022/09/22 08:47:16;;;;;;;2.37;0.90;;;;;;;-145.69;68.96;71937.69;5092479;28;20226;-79
2022/09/22 08:52:37;;;;;;;1.17;0.73;;;;;;;-145.69;68.03;71939.69;5092723;28;20206;-81
2022/09/22 08:55:07;;;;;;;1.00;0.70;;;;;;;-145.69;67.02;71929.75;5092641;28;20206;-81
2022/09/22 08:57:55;;;;;;;1.93;0.80;;;;;;;-145.69;67.38;71927.75;5092618;28;20372;-80
2022/09/22 09:00:22;;;;;;;2.20;0.70;;;;;;;-145.69;63.18;71923.78;5092725;28;20201;-80
2022/09/22 09:02:59;;;;;;;0.83;0.60;;;;;;;-145.69;65.93;71899.88;5092470;28;20645;-80
2022/09/22 09:05:53;;;;;;;2.53;0.70;;;;;;;-145.69;65.71;71907.84;5072128;28;20248;-80
2022/09/22 09:08:39;;;;;;;1.50;0.80;;;;;;;-145.69;63.97;71903.88;5072385;28;20281;-80
2022/09/22 09:11:17;;;;;;;2.07;0.80;;;;;;;-145.69;66.16;71903.88;5072509;28;20272;-81
2022/09/22 09:13:56;;;;;;;0.90;0.70;;;;;;;-145.69;66.60;71895.91;5072299;28;20431;-79
2022/09/22 09:16:38;;;;;;;3.80;0.77;;;;;;;-145.69;62.92;71887.94;5072111;28;20676;-79
2022/09/22 09:19:14;;;;;;;0.70;0.70;;;;;;;-145.69;67.32;71876.00;5072265;28;20202;-79
2022/09/22 09:21:47;;;;;;;3.05;0.70;;;;;;;-145.69;62.34;71844.16;5072463;28;20205;-79
2022/09/22 09:24:23;;;;;;;1.63;0.55;;;;;;;-145.69;62.30;71852.13;5075526;28;20203;-79
2022/09/22 09:26:51;;;;;;;0.60;0.52;;;;;;;-145.69;63.94;71834.22;5075488;28;20750;-79
2022/09/22 09:29:23;;;;;;;0.50;0.50;;;;;;;-145.69;63.81;71824.25;5075634;28;20199;-80
2022/09/22 09:31:53;;;;;;;0.60;0.60;;;;;;;-145.69;58.57;71828.25;5075541;28;20222;-79
2022/09/22 09:34:24;;;;;;;0.88;0.50;;;;;;;-145.69;59.49;71800.38;5085851;28;20198;-78
2022/09/22 09:36:54;;;;;;;2.00;0.70;;;;;;;-145.69;62.52;71788.44;5095434;28;20197;-80
2022/09/22 09:39:27;;;;;;;0.55;0.50;;;;;;;-145.69;59.65;71812.31;5096153;28;20202;-79
2022/09/22 09:41:54;;;;;;;0.63;0.45;;;;;;;-145.69;58.48;71808.34;5095716;28;20221;-79
2022/09/22 09:44:26;;;;;;;1.40;0.60;;;;;;;-145.69;58.60;71780.50;5057781;28;20294;-77
2022/09/22 09:47:02;;;;;;;1.90;0.68;;;;;;;-145.69;56.81;71790.44;5055214;28;20693;-80
2022/09/22 09:49:31;;;;;;;0.80;0.45;;;;;;;-145.69;54.05;71792.44;5055027;28;20223;-79
2022/09/22 09:52:01;;;;;;;6.40;0.70;;;;;;;-145.69;55.80;71790.44;5055366;28;20204;-79
2022/09/22 09:54:28;;;;;;;1.37;0.60;;;;;;;-145.69;59.33;71780.50;5055468;28;20203;-80
2022/09/22 09:57:03;;;;;;;2.92;0.60;;;;;;;-145.69;54.71;71784.47;5055164;28;20566;-80
2022/09/22 10:02:15;;;;;;;2.15;0.50;;;;;;;-145.69;54.07;71764.56;5055189;28;20217;-81
2022/09/22 10:04:50;;;;;;;0.98;0.45;;;;;;;-145.69;57.84;71740.69;5087935;28;20451;-81
2022/09/22 10:07:19;;;;;;;1.08;0.57;;;;;;;-145.69;57.21;71738.69;5062306;28;20227;-79
2022/09/22 10:09:48;;;;;;;0.50;0.50;;;;;;;-145.69;52.49;71730.72;5095438;28;20201;-79
2022/09/22 10:12:26;;;;;;;3.22;0.50;;;;;;;-145.69;54.35;71738.69;5094990;28;20198;-81
2022/09/22 10:14:55;;;;;;;1.85;0.63;;;;;;;-145.69;50.67;71736.72;5095133;28;20548;-77
2022/09/22 10:17:26;;;;;;;0.98;0.60;;;;;;;-145.69;52.57;71740.69;5094867;28;20557;-79
2022/09/22 10:20:15;;;;;;;0.93;0.63;;;;;;;-145.69;50.67;71718.78;5094816;28;20202;-80
2022/09/22 10:22:42;;;;;;;0.60;0.60;;;;;;;-145.69;52.39;71704.88;5094754;28;20657;-78
2022/09/22 10:25:20;;;;;;;1.42;0.70;;;;;;;-145.69;51.56;71724.75;5094699;28;20198;-79
2022/09/22 10:27:59;;;;;;;1.00;0.73;;;;;;;-145.69;52.42;71688.94;5094869;28;20278;-78
2022/09/22 10:30:26;;;;;;;0.90;0.60;;;;;;;-145.69;50.06;71700.88;5094861;28;20487;-77
2022/09/22 10:33:12;;;;;;;0.90;0.70;;;;;;;-145.69;48.54;71700.88;5093921;28;20596;-80
2022/09/22 10:35:42;;;;;;;0.43;0.40;;;;;;;-145.69;50.56;71720.78;5074246;28;20209;-79
2022/09/22 10:38:15;;;;;;;0.80;0.43;;;;;;;-145.69;51.91;71716.81;5074919;28;20213;-77
2022/09/22 10:40:46;;;;;;;0.77;0.68;;;;;;;-145.69;47.92;71708.84;5074372;28;20205;-78
2022/09/22 10:43:28;;;;;;;2.63;0.68;;;;;;;-145.69;50.99;71680.97;5074094;28;20669;-78
2022/09/22 10:46:11;;;;;;;0.57;0.57;;;;;;;-145.69;46.71;71680.97;5074052;28;20207;-77
2022/09/22 10:48:46;;;;;;;1.23;0.60;;;;;;;-145.69;48.82;71661.09;5074201;28;20210;-80
2022/09/22 10:51:27;;;;;;;0.63;0.50;;;;;;;-145.69;47.17;71641.19;5073485;28;20451;-80
2022/09/22 10:54:15;;;;;;;1.17;0.50;;;;;;;-145.69;47.46;71641.19;5073978;28;20199;-79
2022/09/22 10:56:46;;;;;;;1.42;0.60;;;;;;;-145.69;51.81;71645.16;5074159;28;20260;-79
2022/09/22 10:59:36;;;;;;;0.50;0.50;;;;;;;-145.69;49.28;71669.03;5074001;28;20286;-80
2022/09/22 11:02:45;;;;;;;0.80;0.52;;;;;;;-145.69;50.77;71661.09;5074963;28;20195;-78
2022/09/22 11:14:11;;;;;;;1.27;0.80;;;;;;;-145.69;50.39;71593.44;5073677;28;20256;-78
2022/09/22 11:17:01;;;;;;;0.77;0.60;;;;;;;-145.69;45.59;71603.38;5073600;28;20209;-78
2022/09/22 11:19:47;;;;;;;1.10;0.70;;;;;;;-145.69;49.79;71597.41;5073561;28;20198;-79
2022/09/22 11:22:41;;;;;;;1.88;0.57;;;;;;;-145.69;51.11;71575.50;5073336;28;20207;-80
2022/09/22 11:25:27;;;;;;;3.55;0.77;;;;;;;-145.69;50.20;71583.47;5073476;28;20206;-78
2022/09/22 11:28:09;;;;;;;0.52;0.52;;;;;;;-145.69;47.46;71583.47;5073126;28;20704;-78
2022/09/22 11:30:44;;;;;;;0.68;0.50;;;;;;;-145.69;51.34;71571.53;5079405;28;20200;-79
2022/09/22 11:33:36;;;;;;;3.90;0.60;;;;;;;-145.69;50.92;71543.69;5092959;28;20194;-79
2022/09/22 11:36:16;;;;;;;0.52;0.50;;;;;;;-145.69;47.38;71543.69;5093404;28;20568;-78
2022/09/22 11:39:03;;;;;;;1.17;0.60;;;;;;;-145.69;46.07;71585.47;5080300;28;20211;-78
2022/09/22 11:41:38;;;;;;;2.80;0.60;;;;;;;-145.69;49.60;71549.66;5052462;28;20926;-78
2022/09/22 11:44:30;;;;;;;0.50;0.50;;;;;;;-145.69;46.09;71545.66;5052534;28;20446;-79